sensor_id;sensor_type;location;lat;lon;timestamp;P1;durP1;ratioP1;P2;durP2;ratioP2
37477;SDS011;23334;54.316;10.182;2023-04-03T00:01:01;1.07;;;0.90;;
37477;SDS011;23334;54.316;10.182;2023-04-03T00:03:27;2.10;;;0.93;;
37477;SDS011;23334;54.316;10.182;2023-04-03T00:05:53;0.70;;;0.70;;
37477;SDS011;23334;54.316;10.182;2023-04-03T00:08:19;1.47;;;0.90;;
37477;SDS011;23334;54.316;10.182;2023-04-03T00:10:44;1.70;;;0.80;;
37477;SDS011;23334;54.316;10.182;2023-04-03T00:13:10;0.97;;;0.70;;
37477;SDS011;23334;54.316;10.182;2023-04-03T00:15:35;1.20;;;0.87;;
37477;SDS011;23334;54.316;10.182;2023-04-03T00:18:02;1.27;;;0.80;;
37477;SDS011;23334;54.316;10.182;2023-04-03T00:20:28;1.27;;;0.87;;
37477;SDS011;23334;54.316;10.182;2023-04-03T00:22:54;2.63;;;0.73;;
37477;SDS011;23334;54.316;10.182;2023-04-03T00:25:19;4.07;;;0.87;;
37477;SDS011;23334;54.316;10.182;2023-04-03T00:27:45;1.23;;;0.67;;
37477;SDS011;23334;54.316;10.182;2023-04-03T00:30:13;1.10;;;0.70;;
37477;SDS011;23334;54.316;10.182;2023-04-03T00:32:40;0.80;;;0.60;;
37477;SDS011;23334;54.316;10.182;2023-04-03T00:35:06;3.87;;;0.90;;
37477;SDS011;23334;54.316;10.182;2023-04-03T00:37:32;1.27;;;0.80;;
37477;SDS011;23334;54.316;10.182;2023-04-03T00:39:58;1.97;;;0.87;;
37477;SDS011;23334;54.316;10.182;2023-04-03T00:42:24;2.23;;;0.77;;
37477;SDS011;23334;54.316;10.182;2023-04-03T00:47:21;4.93;;;0.70;;
37477;SDS011;23334;54.316;10.182;2023-04-03T00:49:47;0.80;;;0.70;;
37477;SDS011;23334;54.316;10.182;2023-04-03T00:52:15;0.80;;;0.80;;
37477;SDS011;23334;54.316;10.182;2023-04-03T00:54:42;3.20;;;0.83;;
37477;SDS011;23334;54.316;10.182;2023-04-03T00:57:10;1.30;;;0.93;;
37477;SDS011;23334;54.316;10.182;2023-04-03T00:59:41;2.77;;;0.93;;
37477;SDS011;23334;54.316;10.182;2023-04-03T01:02:09;1.17;;;0.90;;
37477;SDS011;23334;54.316;10.182;2023-04-03T01:04:36;2.23;;;0.67;;
37477;SDS011;23334;54.316;10.182;2023-04-03T01:07:05;2.53;;;1.07;;
37477;SDS011;23334;54.316;10.182;2023-04-03T01:09:34;1.60;;;0.63;;
37477;SDS011;23334;54.316;10.182;2023-04-03T01:12:16;10.70;;;0.80;;
37477;SDS011;23334;54.316;10.182;2023-04-03T01:14:43;4.40;;;0.93;;
37477;SDS011;23334;54.316;10.182;2023-04-03T01:20:00;1.10;;;1.00;;
37477;SDS011;23334;54.316;10.182;2023-04-03T01:22:40;1.43;;;1.30;;
37477;SDS011;23334;54.316;10.182;2023-04-03T01:25:16;2.37;;;1.20;;
37477;SDS011;23334;54.316;10.182;2023-04-03T01:27:42;1.37;;;0.80;;
37477;SDS011;23334;54.316;10.182;2023-04-03T01:30:08;1.30;;;1.10;;
37477;SDS011;23334;54.316;10.182;2023-04-03T01:32:35;2.83;;;0.73;;
37477;SDS011;23334;54.316;10.182;2023-04-03T01:35:01;1.33;;;1.23;;
37477;SDS011;23334;54.316;10.182;2023-04-03T01:37:26;3.20;;;1.07;;
37477;SDS011;23334;54.316;10.182;2023-04-03T01:39:52;1.30;;;1.13;;
37477;SDS011;23334;54.316;10.182;2023-04-03T01:42:18;1.33;;;0.97;;
37477;SDS011;23334;54.316;10.182;2023-04-03T01:44:43;3.10;;;1.23;;
37477;SDS011;23334;54.316;10.182;2023-04-03T01:47:10;1.20;;;1.10;;
37477;SDS011;23334;54.316;10.182;2023-04-03T01:49:35;1.00;;;0.90;;
37477;SDS011;23334;54.316;10.182;2023-04-03T01:52:01;2.50;;;0.90;;
37477;SDS011;23334;54.316;10.182;2023-04-03T01:54:26;2.50;;;0.80;;
37477;SDS011;23334;54.316;10.182;2023-04-03T01:56:52;6.77;;;1.30;;
37477;SDS011;23334;54.316;10.182;2023-04-03T01:59:17;9.97;;;1.20;;
37477;SDS011;23334;54.316;10.182;2023-04-03T02:01:44;1.97;;;0.97;;
37477;SDS011;23334;54.316;10.182;2023-04-03T02:04:10;1.50;;;0.90;;
37477;SDS011;23334;54.316;10.182;2023-04-03T02:06:36;1.07;;;0.77;;
37477;SDS011;23334;54.316;10.182;2023-04-03T02:09:02;0.80;;;0.60;;
37477;SDS011;23334;54.316;10.182;2023-04-03T02:11:29;2.30;;;0.77;;
37477;SDS011;23334;54.316;10.182;2023-04-03T02:13:54;1.33;;;1.00;;
37477;SDS011;23334;54.316;10.182;2023-04-03T02:16:20;3.00;;;1.07;;
37477;SDS011;23334;54.316;10.182;2023-04-03T02:18:45;1.00;;;0.70;;
37477;SDS011;23334;54.316;10.182;2023-04-03T02:21:11;1.07;;;1.00;;
37477;SDS011;23334;54.316;10.182;2023-04-03T02:23:36;1.53;;;0.70;;
37477;SDS011;23334;54.316;10.182;2023-04-03T02:26:09;7.57;;;1.37;;
37477;SDS011;23334;54.316;10.182;2023-04-03T02:28:37;0.80;;;0.80;;
37477;SDS011;23334;54.316;10.182;2023-04-03T02:31:03;1.90;;;1.07;;
37477;SDS011;23334;54.316;10.182;2023-04-03T02:33:32;4.67;;;0.83;;
37477;SDS011;23334;54.316;10.182;2023-04-03T02:35:58;0.90;;;0.60;;
37477;SDS011;23334;54.316;10.182;2023-04-03T02:38:24;2.63;;;1.10;;
37477;SDS011;23334;54.316;10.182;2023-04-03T02:40:50;1.70;;;1.07;;
37477;SDS011;23334;54.316;10.182;2023-04-03T02:43:17;1.97;;;1.40;;
37477;SDS011;23334;54.316;10.182;2023-04-03T02:45:42;2.17;;;1.43;;
37477;SDS011;23334;54.316;10.182;2023-04-03T02:48:08;2.50;;;1.40;;
37477;SDS011;23334;54.316;10.182;2023-04-03T02:50:33;5.70;;;1.47;;
37477;SDS011;23334;54.316;10.182;2023-04-03T02:52:59;2.80;;;1.33;;
37477;SDS011;23334;54.316;10.182;2023-04-03T02:55:24;3.20;;;1.40;;
37477;SDS011;23334;54.316;10.182;2023-04-03T02:57:50;4.10;;;0.90;;
37477;SDS011;23334;54.316;10.182;2023-04-03T03:00:15;4.83;;;1.27;;
37477;SDS011;23334;54.316;10.182;2023-04-03T03:02:41;11.80;;;1.07;;
37477;SDS011;23334;54.316;10.182;2023-04-03T03:05:07;3.00;;;1.50;;
37477;SDS011;23334;54.316;10.182;2023-04-03T03:07:33;1.30;;;1.20;;
37477;SDS011;23334;54.316;10.182;2023-04-03T03:09:58;1.50;;;1.40;;
37477;SDS011;23334;54.316;10.182;2023-04-03T03:12:24;1.40;;;1.30;;
37477;SDS011;23334;54.316;10.182;2023-04-03T03:14:49;5.20;;;1.60;;
37477;SDS011;23334;54.316;10.182;2023-04-03T03:17:15;2.00;;;1.33;;
37477;SDS011;23334;54.316;10.182;2023-04-03T03:19:41;5.43;;;1.27;;
37477;SDS011;23334;54.316;10.182;2023-04-03T03:22:07;4.00;;;1.50;;
37477;SDS011;23334;54.316;10.182;2023-04-03T03:24:32;2.30;;;1.17;;
37477;SDS011;23334;54.316;10.182;2023-04-03T03:26:57;10.57;;;1.47;;
37477;SDS011;23334;54.316;10.182;2023-04-03T03:29:23;1.97;;;1.30;;
37477;SDS011;23334;54.316;10.182;2023-04-03T03:31:48;3.97;;;1.67;;
37477;SDS011;23334;54.316;10.182;2023-04-03T03:34:14;1.37;;;1.27;;
37477;SDS011;23334;54.316;10.182;2023-04-03T03:36:40;1.73;;;1.60;;
37477;SDS011;23334;54.316;10.182;2023-04-03T03:39:06;4.70;;;1.20;;
37477;SDS011;23334;54.316;10.182;2023-04-03T03:41:31;2.33;;;1.97;;
37477;SDS011;23334;54.316;10.182;2023-04-03T03:43:57;7.00;;;1.73;;
37477;SDS011;23334;54.316;10.182;2023-04-03T03:46:23;2.17;;;2.07;;
37477;SDS011;23334;54.316;10.182;2023-04-03T03:48:48;2.83;;;1.90;;
37477;SDS011;23334;54.316;10.182;2023-04-03T03:51:14;2.40;;;2.03;;
37477;SDS011;23334;54.316;10.182;2023-04-03T03:53:40;1.77;;;1.63;;
37477;SDS011;23334;54.316;10.182;2023-04-03T03:56:05;2.90;;;1.40;;
37477;SDS011;23334;54.316;10.182;2023-04-03T03:58:31;2.90;;;1.67;;
37477;SDS011;23334;54.316;10.182;2023-04-03T04:01:00;5.47;;;1.93;;
37477;SDS011;23334;54.316;10.182;2023-04-03T04:03:27;1.80;;;1.70;;
37477;SDS011;23334;54.316;10.182;2023-04-03T04:05:52;2.00;;;1.67;;
37477;SDS011;23334;54.316;10.182;2023-04-03T04:08:18;2.40;;;2.00;;
37477;SDS011;23334;54.316;10.182;2023-04-03T04:10:43;4.03;;;2.17;;
37477;SDS011;23334;54.316;10.182;2023-04-03T04:13:09;2.10;;;2.00;;
37477;SDS011;23334;54.316;10.182;2023-04-03T04:15:34;2.40;;;2.20;;
37477;SDS011;23334;54.316;10.182;2023-04-03T04:18:00;10.93;;;2.80;;
37477;SDS011;23334;54.316;10.182;2023-04-03T04:20:25;6.30;;;2.30;;
37477;SDS011;23334;54.316;10.182;2023-04-03T04:22:51;12.80;;;2.40;;
37477;SDS011;23334;54.316;10.182;2023-04-03T04:25:16;2.80;;;2.10;;
37477;SDS011;23334;54.316;10.182;2023-04-03T04:27:42;6.40;;;1.90;;
37477;SDS011;23334;54.316;10.182;2023-04-03T04:30:08;5.47;;;1.80;;
37477;SDS011;23334;54.316;10.182;2023-04-03T04:32:35;3.23;;;2.27;;
37477;SDS011;23334;54.316;10.182;2023-04-03T04:35:01;4.70;;;2.80;;
37477;SDS011;23334;54.316;10.182;2023-04-03T04:37:26;5.53;;;2.03;;
37477;SDS011;23334;54.316;10.182;2023-04-03T04:39:52;2.80;;;2.33;;
37477;SDS011;23334;54.316;10.182;2023-04-03T04:42:18;2.50;;;2.30;;
37477;SDS011;23334;54.316;10.182;2023-04-03T04:44:43;4.37;;;2.40;;
37477;SDS011;23334;54.316;10.182;2023-04-03T04:47:09;6.23;;;2.77;;
37477;SDS011;23334;54.316;10.182;2023-04-03T04:49:35;7.03;;;2.27;;
37477;SDS011;23334;54.316;10.182;2023-04-03T04:52:00;4.20;;;2.77;;
37477;SDS011;23334;54.316;10.182;2023-04-03T04:54:26;6.53;;;2.50;;
37477;SDS011;23334;54.316;10.182;2023-04-03T04:56:51;2.40;;;2.20;;
37477;SDS011;23334;54.316;10.182;2023-04-03T04:59:17;3.50;;;2.17;;
37477;SDS011;23334;54.316;10.182;2023-04-03T05:01:42;2.53;;;2.33;;
37477;SDS011;23334;54.316;10.182;2023-04-03T05:04:11;2.50;;;2.17;;
37477;SDS011;23334;54.316;10.182;2023-04-03T05:06:37;2.80;;;2.17;;
37477;SDS011;23334;54.316;10.182;2023-04-03T05:09:03;3.50;;;2.00;;
37477;SDS011;23334;54.316;10.182;2023-04-03T05:11:28;2.93;;;2.70;;
37477;SDS011;23334;54.316;10.182;2023-04-03T05:13:54;2.53;;;1.77;;
37477;SDS011;23334;54.316;10.182;2023-04-03T05:16:20;8.73;;;2.37;;
37477;SDS011;23334;54.316;10.182;2023-04-03T05:18:45;6.17;;;2.47;;
37477;SDS011;23334;54.316;10.182;2023-04-03T05:21:11;2.50;;;2.20;;
37477;SDS011;23334;54.316;10.182;2023-04-03T05:23:37;5.80;;;2.53;;
37477;SDS011;23334;54.316;10.182;2023-04-03T05:26:02;8.70;;;2.43;;
37477;SDS011;23334;54.316;10.182;2023-04-03T05:28:28;8.90;;;2.67;;
37477;SDS011;23334;54.316;10.182;2023-04-03T05:30:54;2.90;;;2.70;;
37477;SDS011;23334;54.316;10.182;2023-04-03T05:33:21;4.20;;;2.83;;
37477;SDS011;23334;54.316;10.182;2023-04-03T05:35:48;9.90;;;2.70;;
37477;SDS011;23334;54.316;10.182;2023-04-03T05:38:13;5.53;;;2.50;;
37477;SDS011;23334;54.316;10.182;2023-04-03T05:40:39;11.10;;;3.20;;
37477;SDS011;23334;54.316;10.182;2023-04-03T05:43:05;3.20;;;2.83;;
37477;SDS011;23334;54.316;10.182;2023-04-03T05:45:31;4.73;;;2.60;;
37477;SDS011;23334;54.316;10.182;2023-04-03T05:47:56;4.23;;;2.83;;
37477;SDS011;23334;54.316;10.182;2023-04-03T05:50:22;2.30;;;2.20;;
37477;SDS011;23334;54.316;10.182;2023-04-03T05:52:48;3.73;;;3.20;;
37477;SDS011;23334;54.316;10.182;2023-04-03T05:55:15;4.43;;;3.27;;
37477;SDS011;23334;54.316;10.182;2023-04-03T05:57:41;4.83;;;3.90;;
37477;SDS011;23334;54.316;10.182;2023-04-03T06:00:07;7.13;;;4.90;;
37477;SDS011;23334;54.316;10.182;2023-04-03T06:02:34;12.77;;;5.00;;
37477;SDS011;23334;54.316;10.182;2023-04-03T06:05:00;9.13;;;4.97;;
37477;SDS011;23334;54.316;10.182;2023-04-03T06:07:27;10.10;;;5.00;;
37477;SDS011;23334;54.316;10.182;2023-04-03T06:09:53;5.40;;;4.00;;
37477;SDS011;23334;54.316;10.182;2023-04-03T06:12:21;11.30;;;4.00;;
37477;SDS011;23334;54.316;10.182;2023-04-03T06:14:47;4.77;;;3.70;;
37477;SDS011;23334;54.316;10.182;2023-04-03T06:17:13;5.13;;;3.00;;
37477;SDS011;23334;54.316;10.182;2023-04-03T06:19:40;11.43;;;4.90;;
37477;SDS011;23334;54.316;10.182;2023-04-03T06:22:06;10.00;;;4.20;;
37477;SDS011;23334;54.316;10.182;2023-04-03T06:24:32;10.13;;;4.20;;
37477;SDS011;23334;54.316;10.182;2023-04-03T06:26:58;5.83;;;3.90;;
37477;SDS011;23334;54.316;10.182;2023-04-03T06:29:23;5.80;;;3.73;;
37477;SDS011;23334;54.316;10.182;2023-04-03T06:31:49;4.70;;;3.40;;
37477;SDS011;23334;54.316;10.182;2023-04-03T06:34:15;3.43;;;2.77;;
37477;SDS011;23334;54.316;10.182;2023-04-03T06:36:41;2.80;;;2.60;;
37477;SDS011;23334;54.316;10.182;2023-04-03T06:39:08;3.37;;;2.33;;
37477;SDS011;23334;54.316;10.182;2023-04-03T06:41:37;5.23;;;3.20;;
37477;SDS011;23334;54.316;10.182;2023-04-03T06:44:03;3.23;;;2.73;;
37477;SDS011;23334;54.316;10.182;2023-04-03T06:46:28;3.97;;;3.57;;
37477;SDS011;23334;54.316;10.182;2023-04-03T06:48:54;4.27;;;3.10;;
37477;SDS011;23334;54.316;10.182;2023-04-03T06:51:21;8.00;;;3.60;;
37477;SDS011;23334;54.316;10.182;2023-04-03T06:53:51;5.37;;;3.47;;
37477;SDS011;23334;54.316;10.182;2023-04-03T06:56:18;3.33;;;3.03;;
37477;SDS011;23334;54.316;10.182;2023-04-03T06:58:44;16.77;;;3.77;;
37477;SDS011;23334;54.316;10.182;2023-04-03T07:01:10;3.70;;;2.40;;
37477;SDS011;23334;54.316;10.182;2023-04-03T07:03:38;4.17;;;2.47;;
37477;SDS011;23334;54.316;10.182;2023-04-03T07:06:04;7.10;;;2.43;;
37477;SDS011;23334;54.316;10.182;2023-04-03T07:08:32;3.77;;;1.97;;
37477;SDS011;23334;54.316;10.182;2023-04-03T07:10:58;7.77;;;2.20;;
37477;SDS011;23334;54.316;10.182;2023-04-03T07:13:24;8.83;;;2.47;;
37477;SDS011;23334;54.316;10.182;2023-04-03T07:15:50;4.07;;;1.50;;
37477;SDS011;23334;54.316;10.182;2023-04-03T07:18:16;14.23;;;2.50;;
37477;SDS011;23334;54.316;10.182;2023-04-03T07:20:42;17.27;;;2.60;;
37477;SDS011;23334;54.316;10.182;2023-04-03T07:23:08;3.60;;;1.80;;
37477;SDS011;23334;54.316;10.182;2023-04-03T07:25:33;19.60;;;2.83;;
37477;SDS011;23334;54.316;10.182;2023-04-03T07:27:59;7.20;;;1.60;;
37477;SDS011;23334;54.316;10.182;2023-04-03T07:30:24;7.37;;;2.10;;
37477;SDS011;23334;54.316;10.182;2023-04-03T07:32:51;5.27;;;1.50;;
37477;SDS011;23334;54.316;10.182;2023-04-03T07:35:16;8.47;;;1.50;;
37477;SDS011;23334;54.316;10.182;2023-04-03T07:37:42;15.63;;;3.20;;
37477;SDS011;23334;54.316;10.182;2023-04-03T07:40:08;8.33;;;2.00;;
37477;SDS011;23334;54.316;10.182;2023-04-03T07:42:35;10.73;;;2.23;;
37477;SDS011;23334;54.316;10.182;2023-04-03T07:45:02;12.00;;;2.90;;
37477;SDS011;23334;54.316;10.182;2023-04-03T07:47:29;5.93;;;1.87;;
37477;SDS011;23334;54.316;10.182;2023-04-03T07:49:55;8.00;;;1.47;;
37477;SDS011;23334;54.316;10.182;2023-04-03T07:52:22;4.57;;;1.43;;
37477;SDS011;23334;54.316;10.182;2023-04-03T07:54:47;3.90;;;1.20;;
37477;SDS011;23334;54.316;10.182;2023-04-03T07:57:13;8.67;;;1.50;;
37477;SDS011;23334;54.316;10.182;2023-04-03T07:59:39;21.80;;;2.57;;
37477;SDS011;23334;54.316;10.182;2023-04-03T08:02:08;12.57;;;2.10;;
37477;SDS011;23334;54.316;10.182;2023-04-03T08:04:34;7.63;;;1.30;;
37477;SDS011;23334;54.316;10.182;2023-04-03T08:07:00;11.53;;;1.90;;
37477;SDS011;23334;54.316;10.182;2023-04-03T08:09:26;8.87;;;1.37;;
37477;SDS011;23334;54.316;10.182;2023-04-03T08:11:52;6.63;;;1.23;;
37477;SDS011;23334;54.316;10.182;2023-04-03T08:14:18;26.53;;;2.90;;
37477;SDS011;23334;54.316;10.182;2023-04-03T08:16:45;13.77;;;1.50;;
37477;SDS011;23334;54.316;10.182;2023-04-03T08:19:11;24.67;;;2.53;;
37477;SDS011;23334;54.316;10.182;2023-04-03T08:21:40;9.70;;;1.13;;
37477;SDS011;23334;54.316;10.182;2023-04-03T08:24:06;6.10;;;1.10;;
37477;SDS011;23334;54.316;10.182;2023-04-03T08:26:33;4.50;;;0.80;;
37477;SDS011;23334;54.316;10.182;2023-04-03T08:28:59;11.27;;;1.37;;
37477;SDS011;23334;54.316;10.182;2023-04-03T08:31:25;7.13;;;1.33;;
37477;SDS011;23334;54.316;10.182;2023-04-03T08:33:51;6.73;;;1.17;;
37477;SDS011;23334;54.316;10.182;2023-04-03T08:36:24;9.57;;;1.47;;
37477;SDS011;23334;54.316;10.182;2023-04-03T08:38:52;10.67;;;1.90;;
37477;SDS011;23334;54.316;10.182;2023-04-03T08:41:29;4.77;;;1.07;;
37477;SDS011;23334;54.316;10.182;2023-04-03T08:44:18;28.20;;;3.03;;
37477;SDS011;23334;54.316;10.182;2023-04-03T08:46:52;20.63;;;2.23;;
37477;SDS011;23334;54.316;10.182;2023-04-03T08:49:29;4.20;;;0.90;;
37477;SDS011;23334;54.316;10.182;2023-04-03T08:51:59;25.90;;;3.03;;
37477;SDS011;23334;54.316;10.182;2023-04-03T08:57:15;10.70;;;1.37;;
37477;SDS011;23334;54.316;10.182;2023-04-03T08:59:42;7.73;;;1.30;;
37477;SDS011;23334;54.316;10.182;2023-04-03T09:02:54;25.03;;;3.20;;
37477;SDS011;23334;54.316;10.182;2023-04-03T09:04:58;14.60;;;1.97;;
37477;SDS011;23334;54.316;10.182;2023-04-03T09:07:26;9.63;;;1.50;;
37477;SDS011;23334;54.316;10.182;2023-04-03T09:10:01;6.73;;;1.33;;
37477;SDS011;23334;54.316;10.182;2023-04-03T09:12:29;7.13;;;1.30;;
37477;SDS011;23334;54.316;10.182;2023-04-03T09:15:18;4.53;;;1.03;;
37477;SDS011;23334;54.316;10.182;2023-04-03T09:18:03;5.87;;;1.20;;
37477;SDS011;23334;54.316;10.182;2023-04-03T09:23:26;7.23;;;1.43;;
37477;SDS011;23334;54.316;10.182;2023-04-03T09:26:14;2.67;;;1.00;;
37477;SDS011;23334;54.316;10.182;2023-04-03T09:28:48;8.13;;;1.53;;
37477;SDS011;23334;54.316;10.182;2023-04-03T09:31:23;17.10;;;2.27;;
37477;SDS011;23334;54.316;10.182;2023-04-03T09:33:52;20.53;;;2.03;;
37477;SDS011;23334;54.316;10.182;2023-04-03T09:39:11;7.43;;;1.53;;
37477;SDS011;23334;54.316;10.182;2023-04-03T09:41:42;16.90;;;2.17;;
37477;SDS011;23334;54.316;10.182;2023-04-03T09:44:23;8.27;;;1.23;;
37477;SDS011;23334;54.316;10.182;2023-04-03T09:46:50;4.03;;;0.90;;
37477;SDS011;23334;54.316;10.182;2023-04-03T09:49:16;6.63;;;1.07;;
37477;SDS011;23334;54.316;10.182;2023-04-03T09:51:42;9.60;;;1.40;;
37477;SDS011;23334;54.316;10.182;2023-04-03T09:57:05;6.00;;;1.10;;
37477;SDS011;23334;54.316;10.182;2023-04-03T09:59:38;9.17;;;1.40;;
37477;SDS011;23334;54.316;10.182;2023-04-03T10:04:48;5.80;;;0.87;;
37477;SDS011;23334;54.316;10.182;2023-04-03T10:07:31;5.27;;;1.00;;
37477;SDS011;23334;54.316;10.182;2023-04-03T10:10:00;6.43;;;1.20;;
37477;SDS011;23334;54.316;10.182;2023-04-03T10:12:40;5.50;;;1.00;;
37477;SDS011;23334;54.316;10.182;2023-04-03T10:15:16;3.60;;;0.87;;
37477;SDS011;23334;54.316;10.182;2023-04-03T10:20:25;13.63;;;1.90;;
37477;SDS011;23334;54.316;10.182;2023-04-03T10:28:44;5.27;;;1.23;;
37477;SDS011;23334;54.316;10.182;2023-04-03T10:36:56;8.17;;;1.50;;
37477;SDS011;23334;54.316;10.182;2023-04-03T10:40:04;4.90;;;1.47;;
37477;SDS011;23334;54.316;10.182;2023-04-03T10:46:03;2.03;;;1.30;;
37477;SDS011;23334;54.316;10.182;2023-04-03T10:48:34;3.77;;;1.30;;
37477;SDS011;23334;54.316;10.182;2023-04-03T10:51:21;3.37;;;1.40;;
37477;SDS011;23334;54.316;10.182;2023-04-03T10:53:56;1.37;;;0.97;;
37477;SDS011;23334;54.316;10.182;2023-04-03T10:56:33;1.20;;;0.80;;
37477;SDS011;23334;54.316;10.182;2023-04-03T10:59:16;3.23;;;1.03;;
37477;SDS011;23334;54.316;10.182;2023-04-03T11:01:49;0.97;;;0.60;;
37477;SDS011;23334;54.316;10.182;2023-04-03T11:04:20;2.40;;;0.70;;
37477;SDS011;23334;54.316;10.182;2023-04-03T11:06:57;1.63;;;1.23;;
37477;SDS011;23334;54.316;10.182;2023-04-03T11:09:48;2.60;;;0.67;;
37477;SDS011;23334;54.316;10.182;2023-04-03T11:12:18;1.77;;;0.70;;
37477;SDS011;23334;54.316;10.182;2023-04-03T11:15:05;2.60;;;0.80;;
37477;SDS011;23334;54.316;10.182;2023-04-03T11:17:39;2.03;;;0.77;;
37477;SDS011;23334;54.316;10.182;2023-04-03T11:20:16;0.80;;;0.50;;
37477;SDS011;23334;54.316;10.182;2023-04-03T11:25:26;0.70;;;0.50;;
37477;SDS011;23334;54.316;10.182;2023-04-03T11:27:59;0.80;;;0.50;;
37477;SDS011;23334;54.316;10.182;2023-04-03T11:30:32;1.10;;;0.43;;
37477;SDS011;23334;54.316;10.182;2023-04-03T11:33:20;0.63;;;0.40;;
37477;SDS011;23334;54.316;10.182;2023-04-03T11:35:48;1.73;;;0.60;;
37477;SDS011;23334;54.316;10.182;2023-04-03T11:38:21;1.20;;;0.50;;
37477;SDS011;23334;54.316;10.182;2023-04-03T11:40:51;1.20;;;0.60;;
37477;SDS011;23334;54.316;10.182;2023-04-03T11:43:29;0.90;;;0.67;;
37477;SDS011;23334;54.316;10.182;2023-04-03T11:45:57;1.67;;;0.50;;
37477;SDS011;23334;54.316;10.182;2023-04-03T11:50:59;2.20;;;0.40;;
37477;SDS011;23334;54.316;10.182;2023-04-03T11:53:37;1.00;;;0.57;;
37477;SDS011;23334;54.316;10.182;2023-04-03T12:01:45;1.10;;;0.60;;
37477;SDS011;23334;54.316;10.182;2023-04-03T12:04:12;2.50;;;0.90;;
37477;SDS011;23334;54.316;10.182;2023-04-03T12:09:22;2.40;;;1.03;;
37477;SDS011;23334;54.316;10.182;2023-04-03T12:11:49;0.90;;;0.63;;
37477;SDS011;23334;54.316;10.182;2023-04-03T12:14:16;2.00;;;1.50;;
37477;SDS011;23334;54.316;10.182;2023-04-03T12:16:43;1.83;;;0.50;;
37477;SDS011;23334;54.316;10.182;2023-04-03T12:26:43;1.83;;;0.43;;
37477;SDS011;23334;54.316;10.182;2023-04-03T12:31:58;5.73;;;0.73;;
37477;SDS011;23334;54.316;10.182;2023-04-03T12:48:25;1.27;;;0.60;;
37477;SDS011;23334;54.316;10.182;2023-04-03T12:50:53;1.20;;;0.50;;
37477;SDS011;23334;54.316;10.182;2023-04-03T12:53:23;1.23;;;0.90;;
37477;SDS011;23334;54.316;10.182;2023-04-03T12:55:55;1.00;;;0.63;;
37477;SDS011;23334;54.316;10.182;2023-04-03T12:58:26;6.00;;;0.70;;
37477;SDS011;23334;54.316;10.182;2023-04-03T13:01:03;1.07;;;0.40;;
37477;SDS011;23334;54.316;10.182;2023-04-03T13:03:34;2.63;;;0.73;;
37477;SDS011;23334;54.316;10.182;2023-04-03T13:06:02;2.60;;;0.60;;
37477;SDS011;23334;54.316;10.182;2023-04-03T13:08:29;2.60;;;0.60;;
37477;SDS011;23334;54.316;10.182;2023-04-03T13:10:57;1.50;;;0.83;;
37477;SDS011;23334;54.316;10.182;2023-04-03T13:13:28;2.90;;;0.60;;
37477;SDS011;23334;54.316;10.182;2023-04-03T13:15:54;1.03;;;0.87;;
37477;SDS011;23334;54.316;10.182;2023-04-03T13:18:25;1.40;;;0.80;;
37477;SDS011;23334;54.316;10.182;2023-04-03T13:21:06;2.10;;;0.60;;
37477;SDS011;23334;54.316;10.182;2023-04-03T13:23:38;0.97;;;0.70;;
37477;SDS011;23334;54.316;10.182;2023-04-03T13:26:07;0.80;;;0.50;;
37477;SDS011;23334;54.316;10.182;2023-04-03T13:28:34;0.97;;;0.60;;
37477;SDS011;23334;54.316;10.182;2023-04-03T13:36:22;4.20;;;0.80;;
37477;SDS011;23334;54.316;10.182;2023-04-03T13:38:58;0.90;;;0.60;;
37477;SDS011;23334;54.316;10.182;2023-04-03T13:41:46;1.73;;;0.63;;
37477;SDS011;23334;54.316;10.182;2023-04-03T13:46:57;2.30;;;0.83;;
37477;SDS011;23334;54.316;10.182;2023-04-03T13:49:30;2.73;;;0.90;;
37477;SDS011;23334;54.316;10.182;2023-04-03T13:52:02;1.03;;;0.70;;
37477;SDS011;23334;54.316;10.182;2023-04-03T13:54:56;3.67;;;0.90;;
37477;SDS011;23334;54.316;10.182;2023-04-03T13:57:24;1.00;;;0.90;;
37477;SDS011;23334;54.316;10.182;2023-04-03T13:59:50;2.07;;;0.60;;
37477;SDS011;23334;54.316;10.182;2023-04-03T14:02:21;0.93;;;0.60;;
37477;SDS011;23334;54.316;10.182;2023-04-03T14:04:58;4.87;;;0.80;;
37477;SDS011;23334;54.316;10.182;2023-04-03T14:07:26;2.03;;;0.90;;
37477;SDS011;23334;54.316;10.182;2023-04-03T14:09:54;1.67;;;0.67;;
37477;SDS011;23334;54.316;10.182;2023-04-03T14:12:27;2.83;;;0.77;;
37477;SDS011;23334;54.316;10.182;2023-04-03T14:14:59;1.77;;;0.70;;
37477;SDS011;23334;54.316;10.182;2023-04-03T14:17:26;2.30;;;0.60;;
37477;SDS011;23334;54.316;10.182;2023-04-03T14:19:53;2.00;;;0.73;;
37477;SDS011;23334;54.316;10.182;2023-04-03T14:22:27;4.97;;;0.80;;
37477;SDS011;23334;54.316;10.182;2023-04-03T14:24:55;1.63;;;0.80;;
37477;SDS011;23334;54.316;10.182;2023-04-03T14:27:22;3.87;;;0.90;;
37477;SDS011;23334;54.316;10.182;2023-04-03T14:29:51;0.90;;;0.70;;
37477;SDS011;23334;54.316;10.182;2023-04-03T14:32:19;1.10;;;0.80;;
37477;SDS011;23334;54.316;10.182;2023-04-03T14:34:46;2.40;;;0.90;;
37477;SDS011;23334;54.316;10.182;2023-04-03T14:37:13;1.33;;;0.80;;
37477;SDS011;23334;54.316;10.182;2023-04-03T14:39:40;1.73;;;0.63;;
37477;SDS011;23334;54.316;10.182;2023-04-03T14:42:10;1.43;;;0.63;;
37477;SDS011;23334;54.316;10.182;2023-04-03T14:44:38;1.10;;;0.70;;
37477;SDS011;23334;54.316;10.182;2023-04-03T14:47:03;2.03;;;0.73;;
37477;SDS011;23334;54.316;10.182;2023-04-03T14:49:29;2.67;;;0.80;;
37477;SDS011;23334;54.316;10.182;2023-04-03T14:51:56;1.63;;;1.20;;
37477;SDS011;23334;54.316;10.182;2023-04-03T14:54:22;1.30;;;0.80;;
37477;SDS011;23334;54.316;10.182;2023-04-03T14:56:53;2.70;;;1.10;;
37477;SDS011;23334;54.316;10.182;2023-04-03T14:59:20;3.90;;;0.67;;
37477;SDS011;23334;54.316;10.182;2023-04-03T15:01:46;1.17;;;1.00;;
37477;SDS011;23334;54.316;10.182;2023-04-03T15:04:12;0.80;;;0.60;;
37477;SDS011;23334;54.316;10.182;2023-04-03T15:06:39;1.90;;;1.10;;
37477;SDS011;23334;54.316;10.182;2023-04-03T15:09:05;2.23;;;1.10;;
37477;SDS011;23334;54.316;10.182;2023-04-03T15:11:44;12.43;;;0.80;;
37477;SDS011;23334;54.316;10.182;2023-04-03T15:14:09;7.10;;;0.90;;
37477;SDS011;23334;54.316;10.182;2023-04-03T15:16:35;4.20;;;1.10;;
37477;SDS011;23334;54.316;10.182;2023-04-03T15:19:01;3.07;;;1.17;;
37477;SDS011;23334;54.316;10.182;2023-04-03T15:21:27;7.33;;;1.03;;
37477;SDS011;23334;54.316;10.182;2023-04-03T15:23:52;2.90;;;1.10;;
37477;SDS011;23334;54.316;10.182;2023-04-03T15:26:19;0.97;;;0.60;;
37477;SDS011;23334;54.316;10.182;2023-04-03T15:28:45;1.67;;;0.80;;
37477;SDS011;23334;54.316;10.182;2023-04-03T15:31:11;1.00;;;0.73;;
37477;SDS011;23334;54.316;10.182;2023-04-03T15:33:36;1.23;;;0.70;;
37477;SDS011;23334;54.316;10.182;2023-04-03T15:36:03;1.10;;;0.70;;
37477;SDS011;23334;54.316;10.182;2023-04-03T15:38:29;1.57;;;0.87;;
37477;SDS011;23334;54.316;10.182;2023-04-03T15:40:55;1.10;;;0.80;;
37477;SDS011;23334;54.316;10.182;2023-04-03T15:43:21;2.40;;;0.80;;
37477;SDS011;23334;54.316;10.182;2023-04-03T15:45:47;1.10;;;0.90;;
37477;SDS011;23334;54.316;10.182;2023-04-03T15:48:13;4.10;;;1.20;;
37477;SDS011;23334;54.316;10.182;2023-04-03T15:50:39;2.90;;;1.30;;
37477;SDS011;23334;54.316;10.182;2023-04-03T15:53:05;4.57;;;1.40;;
37477;SDS011;23334;54.316;10.182;2023-04-03T15:55:33;3.43;;;1.27;;
37477;SDS011;23334;54.316;10.182;2023-04-03T15:58:00;3.90;;;1.83;;
37477;SDS011;23334;54.316;10.182;2023-04-03T16:00:27;2.03;;;1.60;;
37477;SDS011;23334;54.316;10.182;2023-04-03T16:02:55;1.87;;;1.00;;